Time;durP1;ratioP1;P1;durP2;ratioP2;P2;SDS_P1;SDS_P2;PMS_P1;PMS_P2;Temp;Humidity;BMP_temperature;BMP_pressure;BME280_temperature;BME280_humidity;BME280_pressure;Samples;Min_cycle;Max_cycle;Signal;HPM_P1;HPM_P2
2022/05/14 00:00:18;;;;;;;0.70;0.70;;;11.60;93.50;;;;;;5036938;28;20631;-84
2022/05/14 00:02:45;;;;;;;0.70;0.70;;;11.30;95.00;;;;;;5028837;28;20654;-84
2022/05/14 00:05:12;;;;;;;1.10;1.03;;;11.50;94.10;;;;;;5033676;28;21058;-84
2022/05/14 00:07:40;;;;;;;0.90;0.50;;;11.60;96.40;;;;;;5036913;28;20614;-85
2022/05/14 00:10:10;;;;;;;1.20;0.90;;;11.70;96.40;;;;;;5037413;28;20626;-84
2022/05/14 00:15:25;;;;;;;0.93;0.50;;;11.40;95.10;;;;;;5027309;28;20635;-85
2022/05/14 00:17:54;;;;;;;1.10;1.10;;;11.40;95.00;;;;;;5037683;28;20671;-84
2022/05/14 00:20:23;;;;;;;0.63;0.50;;;11.40;94.80;;;;;;5032171;28;20626;-85
2022/05/14 00:22:51;;;;;;;0.90;0.73;;;11.30;95.00;;;;;;5033090;28;20625;-86
2022/05/14 00:25:19;;;;;;;0.93;0.80;;;11.30;95.10;;;;;;5037058;28;20637;-85
2022/05/14 00:27:48;;;;;;;1.07;0.80;;;11.30;95.60;;;;;;5032049;28;20733;-84
2022/05/14 00:30:19;;;;;;;0.77;0.77;;;11.30;95.20;;;;;;5027938;28;21361;-84
2022/05/14 00:32:48;;;;;;;0.80;0.77;;;11.30;95.10;;;;;;5033568;28;20618;-84
2022/05/14 00:35:16;;;;;;;0.80;0.70;;;11.30;95.30;;;;;;5029400;28;20625;-84
2022/05/14 00:37:44;;;;;;;0.90;0.87;;;11.40;96.30;;;;;;5034979;28;20713;-84
2022/05/14 00:40:22;;;;;;;0.60;0.60;;;11.20;96.00;;;;;;5034199;28;21327;-84
2022/05/14 00:42:49;;;;;;;1.10;0.73;;;11.20;96.30;;;;;;5028696;28;21158;-85
2022/05/14 00:45:18;;;;;;;1.57;0.83;;;11.30;96.60;;;;;;5033291;28;20631;-84
2022/05/14 00:47:47;;;;;;;1.90;1.33;;;11.20;94.90;;;;;;5029814;28;21191;-84
2022/05/14 00:50:21;;;;;;;0.80;0.80;;;11.30;95.20;;;;;;5029866;28;20729;-83
2022/05/14 00:52:49;;;;;;;0.60;0.60;;;11.20;95.80;;;;;;5029441;28;20645;-85
2022/05/14 00:55:18;;;;;;;0.90;0.50;;;11.30;96.50;;;;;;5029370;28;20621;-84
2022/05/14 00:57:46;;;;;;;0.83;0.80;;;11.20;96.40;;;;;;5032831;28;21213;-85
2022/05/14 01:00:16;;;;;;;1.27;0.90;;;11.20;96.60;;;;;;5028218;28;20665;-84
2022/05/14 01:02:44;;;;;;;0.63;0.63;;;11.20;96.60;;;;;;5031438;28;21133;-84
2022/05/14 01:05:13;;;;;;;1.37;1.00;;;11.10;95.10;;;;;;5028636;28;20614;-82
2022/05/14 01:07:42;;;;;;;0.90;0.90;;;11.10;95.30;;;;;;5028457;28;20630;-83
2022/05/14 01:10:11;;;;;;;0.67;0.67;;;11.00;95.10;;;;;;5032171;28;21255;-84
2022/05/14 01:12:47;;;;;;;0.50;0.50;;;11.00;95.20;;;;;;5033726;28;20622;-84
2022/05/14 01:15:19;;;;;;;0.50;0.50;;;11.00;94.80;;;;;;5032476;28;20654;-84
2022/05/14 01:17:48;;;;;;;0.53;0.53;;;11.00;94.90;;;;;;5031911;28;20748;-83
2022/05/14 01:20:17;;;;;;;0.63;0.60;;;10.90;97.00;;;;;;5027784;28;21202;-85
2022/05/14 01:22:59;;;;;;;0.60;0.60;;;10.80;96.20;;;;;;5036986;28;20967;-84
2022/05/14 01:28:22;;;;;;;1.57;0.80;;;10.90;95.80;;;;;;5031103;28;20683;-84
2022/05/14 01:30:56;;;;;;;1.07;0.97;;;10.70;96.10;;;;;;5034652;28;20630;-84
2022/05/14 01:33:23;;;;;;;0.83;0.70;;;10.80;96.90;;;;;;5029886;28;21249;-85
2022/05/14 01:35:51;;;;;;;2.43;1.13;;;10.60;98.60;;;;;;5032056;28;21099;-84
2022/05/14 01:38:21;;;;;;;4.23;1.23;;;10.80;99.00;;;;;;5028477;28;20765;-83
2022/05/14 01:40:48;;;;;;;0.60;0.60;;;10.50;98.90;;;;;;5027176;28;20627;-84
2022/05/14 01:43:16;;;;;;;1.90;1.00;;;9.00;98.30;;;;;;5030173;28;20623;-85
2022/05/14 01:45:45;;;;;;;0.77;0.77;;;10.90;98.00;;;;;;5026837;28;20959;-85
2022/05/14 01:48:13;;;;;;;0.40;0.37;;;10.60;97.00;;;;;;5027192;28;20648;-83
2022/05/14 01:50:41;;;;;;;0.50;0.50;;;8.20;96.00;;;;;;5035165;28;20724;-84
2022/05/14 01:53:08;;;;;;;0.50;0.50;;;10.70;95.60;;;;;;5036445;28;20633;-84
2022/05/14 01:55:35;;;;;;;1.13;0.63;;;10.70;96.50;;;;;;5026004;28;21252;-84
2022/05/14 01:58:36;;;;;;;0.50;0.50;;;10.60;96.00;;;;;;5029581;28;21145;-83
2022/05/14 02:00:51;;;;;;;1.23;0.83;;;10.70;96.70;;;;;;5024802;28;20719;-86
2022/05/14 02:03:18;;;;;;;1.83;1.07;;;10.60;96.10;;;;;;5025828;28;20633;-83
2022/05/14 02:05:45;;;;;;;0.80;0.70;;;10.60;96.00;;;;;;5029701;28;20661;-84
2022/05/14 02:08:12;;;;;;;1.73;0.60;;;10.60;96.30;;;;;;5037040;28;20684;-85
2022/05/14 02:10:39;;;;;;;1.17;0.83;;;10.60;98.40;;;;;;5035503;28;20833;-84
2022/05/14 02:13:07;;;;;;;0.70;0.57;;;10.50;97.50;;;;;;5033046;28;21236;-84
2022/05/14 02:15:33;;;;;;;0.80;0.80;;;10.50;97.40;;;;;;5033705;28;20620;-85
2022/05/14 02:18:02;;;;;;;1.23;0.90;;;10.50;97.80;;;;;;5031610;28;20760;-85
2022/05/14 02:20:30;;;;;;;0.70;0.70;;;10.40;98.00;;;;;;5034653;28;20686;-83
2022/05/14 02:22:56;;;;;;;1.23;0.80;;;10.50;97.80;;;;;;5037251;28;20613;-83
2022/05/14 02:25:23;;;;;;;0.77;0.70;;;10.40;97.50;;;;;;5031482;28;21197;-84
2022/05/14 02:27:50;;;;;;;0.60;0.50;;;10.40;98.30;;;;;;5030233;28;20726;-84
2022/05/14 02:30:17;;;;;;;1.10;1.00;;;10.70;97.30;;;;;;5030167;28;20644;-85
2022/05/14 02:32:44;;;;;;;0.77;0.77;;;10.30;97.00;;;;;;5032364;28;20624;-85
2022/05/14 02:35:12;;;;;;;0.83;0.73;;;10.20;98.40;;;;;;5028967;28;20625;-85
2022/05/14 02:37:39;;;;;;;1.50;1.40;;;10.20;98.50;;;;;;5031121;28;20774;-85
2022/05/14 02:40:07;;;;;;;2.30;0.93;;;9.70;99.20;;;;;;5037953;28;20733;-83
2022/05/14 02:42:34;;;;;;;2.23;1.00;;;10.10;98.00;;;;;;5035208;28;20686;-85
2022/05/14 02:45:02;;;;;;;0.77;0.77;;;10.20;97.80;;;;;;5031818;28;21024;-85
2022/05/14 02:47:30;;;;;;;0.70;0.70;;;10.80;99.90;;;;;;5031901;28;21086;-84
2022/05/14 02:49:57;;;;;;;0.70;0.70;;;10.20;98.70;;;;;;5030005;28;20631;-84
2022/05/14 02:52:25;;;;;;;5.10;1.60;;;10.00;99.70;;;;;;5034047;28;20687;-84
2022/05/14 02:54:52;;;;;;;1.87;1.10;;;10.10;99.20;;;;;;5029243;28;20631;-83
2022/05/14 02:57:19;;;;;;;0.90;0.90;;;9.90;99.90;;;;;;5030798;28;20768;-84
2022/05/14 02:59:46;;;;;;;1.37;1.27;;;10.10;99.10;;;;;;5029335;28;21047;-85
2022/05/14 03:02:13;;;;;;;1.30;1.20;;;10.20;99.90;;;;;;5029352;28;21166;-84
2022/05/14 03:04:42;;;;;;;1.17;1.07;;;10.00;99.10;;;;;;5030515;28;20624;-84
2022/05/14 03:07:12;;;;;;;0.80;0.70;;;10.00;99.30;;;;;;5030991;28;20619;-84
2022/05/14 03:09:41;;;;;;;2.50;1.00;;;9.90;99.90;;;;;;5029120;28;20730;-85
2022/05/14 03:12:11;;;;;;;0.97;0.97;;;10.00;99.70;;;;;;5031655;28;20644;-84
2022/05/14 03:14:39;;;;;;;2.70;0.90;;;10.10;99.90;;;;;;5030714;28;20723;-84
2022/05/14 03:17:07;;;;;;;1.10;1.00;;;9.90;99.90;;;;;;5030731;28;20633;-83
2022/05/14 03:19:34;;;;;;;0.90;0.90;;;10.00;99.90;;;;;;5034842;28;21323;-83
2022/05/14 03:22:01;;;;;;;1.63;1.53;;;9.90;99.90;;;;;;5037555;28;20615;-83
2022/05/14 03:24:29;;;;;;;0.80;0.80;;;10.00;99.90;;;;;;5033860;28;20623;-83
2022/05/14 03:26:57;;;;;;;1.30;1.20;;;9.90;99.90;;;;;;5032889;28;20612;-84
2022/05/14 03:29:24;;;;;;;1.37;1.00;;;9.90;99.90;;;;;;5034966;28;20413;-83
2022/05/14 03:31:51;;;;;;;1.30;1.20;;;10.20;99.90;;;;;;5026909;28;20654;-83
2022/05/14 03:34:18;;;;;;;1.50;1.40;;;9.90;99.90;;;;;;5030684;28;20631;-84
2022/05/14 03:36:45;;;;;;;1.40;1.10;;;10.10;99.90;;;;;;5029655;28;20629;-84
2022/05/14 03:39:12;;;;;;;10.10;2.60;;;10.00;99.90;;;;;;5030309;28;20666;-84
2022/05/14 03:41:38;;;;;;;1.20;1.10;;;9.90;99.90;;;;;;5029623;28;20624;-84
2022/05/14 03:44:07;;;;;;;1.20;1.10;;;9.90;99.90;;;;;;5029967;28;20661;-83
2022/05/14 03:46:34;;;;;;;1.30;1.27;;;9.90;99.90;;;;;;5036150;28;20646;-84
2022/05/14 03:49:01;;;;;;;3.63;1.87;;;9.80;99.90;;;;;;5031747;28;20626;-84
2022/05/14 03:51:29;;;;;;;1.43;1.33;;;9.80;99.90;;;;;;5028988;28;20725;-84
2022/05/14 03:53:56;;;;;;;2.23;1.30;;;9.70;99.90;;;;;;5035693;28;21025;-84
2022/05/14 03:56:23;;;;;;;0.60;0.60;;;9.70;99.90;;;;;;5029190;28;21185;-83
2022/05/14 03:58:50;;;;;;;1.80;0.87;;;9.80;99.90;;;;;;5033859;28;21316;-84
2022/05/14 04:01:18;;;;;;;1.47;1.37;;;9.70;99.80;;;;;;5034652;28;21268;-84
2022/05/14 04:03:46;;;;;;;0.70;0.70;;;9.70;99.90;;;;;;5028558;28;21185;-83
2022/05/14 04:06:13;;;;;;;1.00;0.70;;;9.50;99.90;;;;;;5028202;28;20670;-82
2022/05/14 04:08:40;;;;;;;1.40;1.30;;;9.70;99.90;;;;;;5032941;28;20681;-83
2022/05/14 04:11:07;;;;;;;2.80;2.60;;;9.50;99.90;;;;;;5029719;28;21223;-84
2022/05/14 04:13:35;;;;;;;1.30;1.20;;;9.70;99.90;;;;;;5034136;28;22268;-84
2022/05/14 04:16:01;;;;;;;1.57;0.93;;;9.60;99.90;;;;;;5032826;28;20622;-83
2022/05/14 04:18:30;;;;;;;0.93;0.83;;;9.50;99.90;;;;;;5032216;28;20679;-84
2022/05/14 04:20:59;;;;;;;0.70;0.70;;;9.60;99.90;;;;;;5032148;28;20693;-83
2022/05/14 04:23:29;;;;;;;0.90;0.50;;;9.70;99.90;;;;;;5036943;28;20629;-84
2022/05/14 04:25:57;;;;;;;1.50;1.40;;;9.80;99.90;;;;;;5036959;28;21779;-83
2022/05/14 04:28:25;;;;;;;1.07;1.07;;;9.80;99.90;;;;;;5028980;28;20722;-84
2022/05/14 04:30:52;;;;;;;2.60;1.23;;;10.00;99.90;;;;;;5031728;28;20646;-84
2022/05/14 04:33:20;;;;;;;1.17;0.90;;;9.80;99.90;;;;;;5030346;28;20615;-83
2022/05/14 04:35:48;;;;;;;0.80;0.80;;;9.90;99.90;;;;;;5028514;28;20628;-84
2022/05/14 04:38:15;;;;;;;1.63;1.40;;;10.00;99.90;;;;;;5029758;28;20666;-84
2022/05/14 04:40:44;;;;;;;0.90;0.90;;;10.00;99.90;;;;;;5028683;28;20619;-84
2022/05/14 04:43:12;;;;;;;1.20;1.00;;;10.00;99.90;;;;;;5027540;28;20634;-84
2022/05/14 04:45:41;;;;;;;1.97;1.50;;;10.50;99.90;;;;;;5026878;28;20709;-85
2022/05/14 04:48:08;;;;;;;1.17;1.07;;;10.50;99.90;;;;;;5027278;28;20701;-84
2022/05/14 04:50:35;;;;;;;1.40;1.30;;;10.50;99.90;;;;;;5032615;28;20686;-83
2022/05/14 04:53:03;;;;;;;0.77;0.77;;;10.50;99.90;;;;;;5031000;28;20617;-84
2022/05/14 04:55:30;;;;;;;1.80;1.07;;;10.60;99.90;;;;;;5028092;28;20651;-84
2022/05/14 04:57:58;;;;;;;1.17;0.90;;;10.90;99.90;;;;;;5036553;28;20767;-83
2022/05/14 05:00:25;;;;;;;1.40;1.30;;;10.90;99.90;;;;;;5027492;28;20665;-84
2022/05/14 05:05:37;;;;;;;2.10;1.60;;;11.00;99.50;;;;;;5030558;28;20637;-83
2022/05/14 05:08:06;;;;;;;1.67;1.57;;;11.20;99.70;;;;;;5030364;28;20696;-83
2022/05/14 05:10:33;;;;;;;0.60;0.60;;;11.50;98.30;;;;;;5035382;28;20647;-83
2022/05/14 05:13:00;;;;;;;0.70;0.70;;;11.60;98.10;;;;;;5033523;28;20681;-83
2022/05/14 05:15:27;;;;;;;1.97;1.40;;;11.70;98.00;;;;;;5032742;28;20650;-84
2022/05/14 05:17:54;;;;;;;1.00;1.00;;;11.90;97.90;;;;;;5033861;28;20615;-84
2022/05/14 05:20:21;;;;;;;1.30;1.20;;;11.80;97.20;;;;;;5029707;28;20646;-85
2022/05/14 05:22:49;;;;;;;2.30;1.33;;;12.00;96.80;;;;;;5029287;28;20760;-83
2022/05/14 05:25:18;;;;;;;1.53;1.40;;;11.90;97.00;;;;;;5029682;28;20639;-85
2022/05/14 05:27:45;;;;;;;1.20;1.10;;;12.00;95.90;;;;;;5031231;28;20976;-84
2022/05/14 05:30:12;;;;;;;1.07;1.07;;;12.30;95.00;;;;;;5032901;28;20645;-85
2022/05/14 05:32:39;;;;;;;1.00;0.90;;;12.30;95.10;;;;;;5033389;28;20613;-83
2022/05/14 05:35:07;;;;;;;1.27;1.20;;;12.40;94.70;;;;;;5030533;28;20726;-84
2022/05/14 05:37:34;;;;;;;1.87;0.83;;;12.70;94.90;;;;;;5032322;28;20615;-85
2022/05/14 05:40:01;;;;;;;1.57;1.20;;;12.50;94.70;;;;;;5033144;28;20721;-83
2022/05/14 05:42:30;;;;;;;0.87;0.63;;;12.60;94.80;;;;;;5031029;28;21190;-83
2022/05/14 05:44:57;;;;;;;1.30;1.20;;;12.70;94.70;;;;;;5034170;28;20626;-83
2022/05/14 05:47:24;;;;;;;0.77;0.77;;;12.80;94.60;;;;;;5025137;28;21166;-83
2022/05/14 05:49:51;;;;;;;1.27;1.20;;;12.90;94.10;;;;;;5035484;28;20783;-84
2022/05/14 05:52:18;;;;;;;1.33;0.90;;;13.00;93.80;;;;;;5027339;28;20690;-83
2022/05/14 05:57:32;;;;;;;1.80;0.80;;;13.10;93.50;;;;;;5025942;28;21197;-83
2022/05/14 05:59:59;;;;;;;1.00;0.90;;;13.30;93.60;;;;;;5024350;28;20680;-83
2022/05/14 06:02:26;;;;;;;1.13;1.03;;;13.40;93.30;;;;;;5026208;28;20617;-84
2022/05/14 06:04:53;;;;;;;0.80;0.70;;;13.70;93.10;;;;;;5033536;28;20635;-85
2022/05/14 06:07:20;;;;;;;0.53;0.43;;;13.50;93.20;;;;;;5032780;28;20622;-84
2022/05/14 06:09:48;;;;;;;1.00;0.90;;;13.50;92.80;;;;;;5030278;28;20673;-84
2022/05/14 06:12:15;;;;;;;0.70;0.70;;;13.80;93.20;;;;;;5034097;28;20721;-83
2022/05/14 06:14:44;;;;;;;1.10;1.00;;;13.90;93.00;;;;;;5037528;28;21196;-84
2022/05/14 06:17:11;;;;;;;0.70;0.70;;;14.00;91.80;;;;;;5032484;28;21182;-83
2022/05/14 06:19:38;;;;;;;0.93;0.73;;;14.00;91.50;;;;;;5036251;28;20669;-85
2022/05/14 06:22:05;;;;;;;0.87;0.87;;;14.10;91.50;;;;;;5036670;28;20642;-83
2022/05/14 06:24:32;;;;;;;0.83;0.63;;;14.20;92.00;;;;;;5035206;28;20719;-84
2022/05/14 06:26:59;;;;;;;1.17;1.02;;;14.20;91.10;;;;;;5032301;28;20761;-85
2022/05/14 06:29:26;;;;;;;0.70;0.63;;;14.40;90.50;;;;;;5033960;28;20675;-85
2022/05/14 06:31:54;;;;;;;0.70;0.43;;;14.30;89.10;;;;;;5032113;28;20726;-86
2022/05/14 06:34:21;;;;;;;0.77;0.77;;;14.50;89.40;;;;;;5036311;28;21173;-84
2022/05/14 06:36:50;;;;;;;0.73;0.73;;;14.60;89.50;;;;;;5030016;28;20693;-84
2022/05/14 06:39:17;;;;;;;1.00;0.87;;;14.70;88.20;;;;;;5031118;28;20761;-84
2022/05/14 06:41:44;;;;;;;0.60;0.60;;;14.80;89.30;;;;;;5033436;28;20682;-83
2022/05/14 06:44:11;;;;;;;1.13;0.70;;;14.90;87.80;;;;;;5031238;28;20614;-84
2022/05/14 06:46:38;;;;;;;1.00;0.80;;;15.00;88.90;;;;;;5034409;28;21389;-84
2022/05/14 06:49:06;;;;;;;1.07;0.60;;;15.00;87.00;;;;;;5037971;28;20622;-86
2022/05/14 06:51:34;;;;;;;0.77;0.77;;;15.30;86.40;;;;;;5027980;28;20840;-84
2022/05/14 06:54:04;;;;;;;0.70;0.50;;;15.20;86.80;;;;;;5042098;28;20287;-86
2022/05/14 06:56:33;;;;;;;1.37;0.93;;;15.30;88.20;;;;;;5038519;28;21223;-85
2022/05/14 06:59:01;;;;;;;0.50;0.50;;;15.40;89.00;;;;;;5032667;28;20700;-84
2022/05/14 07:01:29;;;;;;;0.67;0.60;;;15.40;89.70;;;;;;5031528;28;20697;-84
2022/05/14 07:06:52;;;;;;;0.60;0.40;;;15.70;87.80;;;;;;5010902;28;20723;-83
2022/05/14 07:09:23;;;;;;;0.77;0.77;;;15.90;87.50;;;;;;5035785;28;20725;-85
2022/05/14 07:11:51;;;;;;;1.37;1.00;;;16.00;85.50;;;;;;5032636;28;21001;-84
2022/05/14 07:14:19;;;;;;;0.80;0.70;;;16.10;87.00;;;;;;5030316;28;20623;-84
2022/05/14 07:16:48;;;;;;;0.80;0.70;;;16.00;87.40;;;;;;5032577;28;20647;-85
2022/05/14 07:19:15;;;;;;;0.30;0.30;;;16.20;87.90;;;;;;5037172;28;21287;-82
2022/05/14 07:21:44;;;;;;;1.97;0.77;;;16.30;87.90;;;;;;5034928;28;20626;-82
2022/05/14 07:24:16;;;;;;;0.40;0.30;;;16.40;86.50;;;;;;5037112;28;20669;-84
2022/05/14 07:26:43;;;;;;;0.80;0.50;;;16.50;85.70;;;;;;5031475;28;20730;-83
2022/05/14 07:29:11;;;;;;;0.70;0.70;;;16.70;83.40;;;;;;5036272;28;22821;-84
2022/05/14 07:31:39;;;;;;;0.60;0.60;;;16.70;78.90;;;;;;5030762;28;20200;-83
2022/05/14 07:34:07;;;;;;;0.30;0.30;;;16.80;78.80;;;;;;5031952;28;20627;-85
2022/05/14 07:36:39;;;;;;;0.50;0.50;;;16.70;77.70;;;;;;5035022;28;20631;-84
2022/05/14 07:39:06;;;;;;;0.60;0.60;;;16.80;76.40;;;;;;5031709;28;20662;-84
2022/05/14 07:41:37;;;;;;;0.80;0.80;;;17.10;76.00;;;;;;5032719;28;20983;-85
2022/05/14 07:44:07;;;;;;;0.63;0.50;;;16.90;76.70;;;;;;5029483;28;20726;-84
2022/05/14 07:46:36;;;;;;;2.17;1.20;;;17.00;77.70;;;;;;5033071;28;20661;-84
2022/05/14 07:49:07;;;;;;;0.53;0.53;;;17.10;74.40;;;;;;5031956;28;20641;-84
2022/05/14 07:51:35;;;;;;;0.60;0.40;;;17.60;74.90;;;;;;5029487;28;20685;-85
2022/05/14 07:54:03;;;;;;;1.17;0.73;;;17.60;74.10;;;;;;5032766;28;20703;-84
2022/05/14 07:56:30;;;;;;;1.20;0.63;;;17.60;74.50;;;;;;5031808;28;20622;-85
2022/05/14 07:58:58;;;;;;;0.43;0.43;;;17.60;77.20;;;;;;5034916;28;20662;-85
2022/05/14 08:01:25;;;;;;;0.47;0.47;;;17.60;78.00;;;;;;5034868;28;20754;-84
2022/05/14 08:03:52;;;;;;;1.00;0.80;;;17.70;78.70;;;;;;5029259;28;21204;-85
2022/05/14 08:06:19;;;;;;;0.50;0.50;;;17.60;74.50;;;;;;5029509;28;20700;-86
2022/05/14 08:08:46;;;;;;;0.53;0.40;;;17.70;76.70;;;;;;5029646;28;20611;-85
2022/05/14 08:11:13;;;;;;;0.50;0.50;;;17.80;76.10;;;;;;5028084;28;20619;-84
2022/05/14 08:13:41;;;;;;;0.50;0.50;;;17.90;74.40;;;;;;5032109;28;20631;-84
2022/05/14 08:16:09;;;;;;;0.97;0.50;;;18.30;70.50;;;;;;5037201;28;20622;-85
2022/05/14 08:18:36;;;;;;;0.40;0.30;;;18.10;70.20;;;;;;5034659;28;20607;-86
2022/05/14 08:26:29;;;;;;;0.40;0.40;;;18.50;70.30;;;;;;5036425;28;20653;-85
2022/05/14 08:28:56;;;;;;;0.30;0.30;;;18.50;68.80;;;;;;5027676;28;20667;-83
2022/05/14 08:31:24;;;;;;;0.97;0.67;;;18.50;70.60;;;;;;5034820;28;20631;-85
2022/05/14 08:33:51;;;;;;;0.63;0.47;;;18.30;70.70;;;;;;5032954;28;20728;-85
2022/05/14 08:36:18;;;;;;;0.50;0.30;;;18.60;72.80;;;;;;5036445;28;20602;-84
2022/05/14 08:38:44;;;;;;;0.43;0.43;;;18.60;73.50;;;;;;5034499;28;20765;-84
2022/05/14 08:41:15;;;;;;;0.30;0.30;;;18.70;71.10;;;;;;5026812;28;20654;-86
2022/05/14 08:43:46;;;;;;;0.57;0.30;;;18.70;67.70;;;;;;5032133;28;20698;-85
2022/05/14 08:46:16;;;;;;;0.50;0.50;;;18.70;67.80;;;;;;5032859;28;21200;-84
2022/05/14 08:48:50;;;;;;;0.30;0.30;;;18.90;65.80;;;;;;5033294;28;20702;-85
2022/05/14 08:51:20;;;;;;;0.53;0.53;;;18.90;66.30;;;;;;5027042;28;20714;-83
2022/05/14 08:53:49;;;;;;;0.60;0.60;;;19.00;68.70;;;;;;5037051;28;20726;-85
2022/05/14 08:56:40;;;;;;;0.50;0.50;;;19.30;66.60;;;;;;5031792;28;20633;-84
2022/05/14 08:59:38;;;;;;;0.67;0.67;;;19.30;67.10;;;;;;5030638;28;20666;-86
2022/05/14 09:02:16;;;;;;;1.00;0.70;;;19.40;65.50;;;;;;5030596;28;20626;-84
2022/05/14 09:04:45;;;;;;;0.40;0.33;;;19.20;64.30;;;;;;5027385;28;20630;-85
2022/05/14 09:07:12;;;;;;;0.70;0.70;;;19.20;68.60;;;;;;5027491;28;20612;-85
2022/05/14 09:09:49;;;;;;;0.40;0.40;;;19.20;66.00;;;;;;5028385;28;20673;-84
2022/05/14 09:12:20;;;;;;;0.40;0.40;;;19.30;66.20;;;;;;5034292;28;20657;-85
2022/05/14 09:14:52;;;;;;;0.40;0.40;;;19.30;64.60;;;;;;5028371;28;20705;-84
2022/05/14 09:17:22;;;;;;;1.13;1.03;;;19.50;64.20;;;;;;5031746;28;20703;-84
2022/05/14 09:19:52;;;;;;;0.60;0.60;;;19.60;65.30;;;;;;5033595;28;20678;-86
2022/05/14 09:22:29;;;;;;;0.60;0.33;;;19.70;66.20;;;;;;5028268;28;20751;-84
2022/05/14 09:25:04;;;;;;;0.50;0.50;;;19.70;64.00;;;;;;5032076;28;20611;-85
2022/05/14 09:27:41;;;;;;;0.60;0.60;;;19.70;62.50;;;;;;5034449;28;20638;-85
2022/05/14 09:30:11;;;;;;;0.73;0.60;;;19.60;63.60;;;;;;5030500;28;20633;-85
2022/05/14 09:32:42;;;;;;;0.50;0.50;;;19.90;63.70;;;;;;5027788;28;20736;-87
2022/05/14 09:35:17;;;;;;;0.40;0.40;;;19.90;63.80;;;;;;5033790;28;20683;-85
2022/05/14 09:37:44;;;;;;;0.60;0.50;;;19.90;62.90;;;;;;5032163;28;20614;-85
2022/05/14 09:40:19;;;;;;;0.43;0.43;;;20.10;64.40;;;;;;5031066;28;20666;-86
2022/05/14 09:42:49;;;;;;;0.63;0.63;;;20.10;61.20;;;;;;5031351;28;20630;-86
2022/05/14 09:45:32;;;;;;;1.03;0.93;;;20.30;61.50;;;;;;5030581;28;20976;-85
2022/05/14 09:48:10;;;;;;;0.70;0.70;;;20.30;61.70;;;;;;5033416;28;20685;-85
2022/05/14 09:50:43;;;;;;;0.57;0.57;;;20.40;60.60;;;;;;5032981;28;20626;-84
2022/05/14 09:53:10;;;;;;;1.00;0.90;;;20.00;59.30;;;;;;5029298;28;20722;-87
2022/05/14 09:56:01;;;;;;;0.70;0.60;;;20.60;61.80;;;;;;5027800;28;20628;-85
2022/05/14 09:58:40;;;;;;;0.90;0.90;;;20.80;63.20;;;;;;5025885;28;21103;-85
2022/05/14 10:01:11;;;;;;;0.50;0.50;;;20.90;63.50;;;;;;5034141;28;20735;-86
2022/05/14 10:03:45;;;;;;;0.53;0.40;;;21.20;62.10;;;;;;5030260;28;20646;-85
2022/05/14 10:06:24;;;;;;;0.50;0.40;;;21.20;57.90;;;;;;5025574;28;20618;-84
2022/05/14 10:09:07;;;;;;;0.70;0.70;;;21.20;58.40;;;;;;5030220;28;21082;-85
2022/05/14 10:11:37;;;;;;;0.97;0.50;;;21.30;57.00;;;;;;5030503;28;20739;-85
2022/05/14 10:14:14;;;;;;;1.70;0.73;;;21.40;57.20;;;;;;5031490;28;20658;-84
2022/05/14 10:16:54;;;;;;;1.37;0.67;;;21.50;58.20;;;;;;5024631;28;20710;-85
2022/05/14 10:19:33;;;;;;;2.97;2.07;;;21.60;56.70;;;;;;5032400;28;20626;-85
2022/05/14 10:22:10;;;;;;;1.40;0.90;;;21.90;57.10;;;;;;5028432;28;20709;-86
2022/05/14 10:27:56;;;;;;;0.57;0.57;;;22.00;55.70;;;;;;5033091;28;21177;-84
2022/05/14 10:30:28;;;;;;;0.50;0.50;;;21.80;56.50;;;;;;5032874;28;20635;-85
2022/05/14 10:33:01;;;;;;;0.70;0.57;;;21.90;54.90;;;;;;5029995;28;20627;-85
2022/05/14 10:35:34;;;;;;;0.90;0.47;;;21.90;52.80;;;;;;5027677;28;20715;-85
2022/05/14 10:38:07;;;;;;;0.43;0.43;;;21.80;51.90;;;;;;5033530;28;20721;-88
2022/05/14 10:40:39;;;;;;;0.60;0.60;;;22.10;53.40;;;;;;5026480;28;20812;-86
2022/05/14 10:43:25;;;;;;;0.60;0.60;;;22.40;51.80;;;;;;5028383;28;20844;-86
2022/05/14 10:45:55;;;;;;;0.40;0.40;;;22.50;52.20;;;;;;5029968;28;20231;-85
2022/05/14 10:48:35;;;;;;;0.70;0.60;;;22.50;49.30;;;;;;5033514;28;20615;-84
2022/05/14 10:51:03;;;;;;;0.50;0.50;;;22.80;53.40;;;;;;5027099;28;20622;-86
2022/05/14 10:53:32;;;;;;;1.37;1.00;;;22.70;57.10;;;;;;5027523;28;20628;-85
2022/05/14 10:56:05;;;;;;;0.97;0.97;;;23.00;58.80;;;;;;5031206;28;20684;-85
2022/05/14 10:58:43;;;;;;;0.80;0.73;;;22.90;57.40;;;;;;5034367;28;20709;-85
2022/05/14 11:01:10;;;;;;;0.60;0.60;;;23.20;55.70;;;;;;5038036;28;20658;-85
2022/05/14 11:03:40;;;;;;;0.83;0.83;;;23.40;56.70;;;;;;5034071;28;20974;-85
2022/05/14 11:06:11;;;;;;;2.90;1.00;;;23.30;57.20;;;;;;5036978;28;20631;-86
2022/05/14 11:08:43;;;;;;;1.27;0.77;;;23.80;57.30;;;;;;5036935;28;20647;-86
2022/05/14 11:11:18;;;;;;;1.07;0.97;;;24.00;56.50;;;;;;5030040;28;20630;-86
2022/05/14 11:14:01;;;;;;;0.80;0.80;;;24.00;56.70;;;;;;5038288;28;20666;-86
2022/05/14 11:16:42;;;;;;;0.70;0.70;;;24.30;56.60;;;;;;5033434;28;20713;-85
2022/05/14 11:19:11;;;;;;;0.70;0.67;;;24.50;55.70;;;;;;5033439;28;20706;-86
2022/05/14 11:21:41;;;;;;;0.90;0.90;;;24.40;54.40;;;;;;5031847;28;20666;-85
2022/05/14 11:24:12;;;;;;;0.90;0.90;;;24.60;54.50;;;;;;5034841;28;20620;-86
2022/05/14 11:26:49;;;;;;;1.30;1.20;;;25.40;56.70;;;;;;5031532;28;20630;-86
2022/05/14 11:29:19;;;;;;;0.60;0.60;;;25.20;53.50;;;;;;5035368;28;20703;-85
2022/05/14 11:32:02;;;;;;;0.73;0.73;;;25.20;53.80;;;;;;5034922;28;20627;-86
2022/05/14 11:34:29;;;;;;;0.57;0.57;;;25.40;54.30;;;;;;5032750;28;20629;-85
2022/05/14 11:36:58;;;;;;;0.80;0.57;;;24.80;50.30;;;;;;5032680;28;20638;-86
2022/05/14 11:39:34;;;;;;;0.50;0.50;;;24.80;51.00;;;;;;5030726;28;20667;-85
2022/05/14 11:42:27;;;;;;;0.90;0.90;;;25.60;54.10;;;;;;5038442;28;20669;-85
2022/05/14 11:45:00;;;;;;;0.87;0.83;;;26.00;49.30;;;;;;5032915;28;20726;-86
2022/05/14 11:47:50;;;;;;;1.30;0.70;;;26.10;50.00;;;;;;5031400;28;20633;-86
2022/05/14 11:50:23;;;;;;;0.80;0.80;;;26.10;49.30;;;;;;5027492;28;20746;-85
2022/05/14 11:53:06;;;;;;;1.30;1.00;;;26.60;52.10;;;;;;5034126;28;20631;-86
2022/05/14 11:55:41;;;;;;;0.90;0.90;;;28.60;46.40;;;;;;5036309;28;20654;-87
2022/05/14 11:58:12;;;;;;;0.80;0.80;;;28.60;46.40;;;;;;5030460;28;21210;-86
2022/05/14 12:00:42;;;;;;;0.77;0.77;;;29.80;46.90;;;;;;5031118;28;20775;-85
2022/05/14 12:03:16;;;;;;;0.50;0.50;;;29.60;44.20;;;;;;5033301;28;20663;-87
2022/05/14 12:05:47;;;;;;;0.50;0.50;;;30.30;46.10;;;;;;5028536;28;20656;-87
2022/05/14 12:08:38;;;;;;;0.57;0.57;;;30.90;45.70;;;;;;5037671;28;20648;-86
2022/05/14 12:11:20;;;;;;;0.77;0.77;;;30.70;44.50;;;;;;5031568;28;21070;-86
2022/05/14 12:13:54;;;;;;;0.53;0.53;;;31.30;44.80;;;;;;5032311;28;20625;-86
2022/05/14 12:16:29;;;;;;;0.63;0.63;;;31.80;42.80;;;;;;5034422;28;20621;-85
2022/05/14 12:18:56;;;;;;;0.80;0.50;;;32.40;41.70;;;;;;5036090;28;21193;-85
2022/05/14 12:21:24;;;;;;;0.83;0.83;;;31.50;43.20;;;;;;5031914;28;21262;-83
2022/05/14 12:23:52;;;;;;;0.80;0.63;;;31.20;42.70;;;;;;5033199;28;20619;-84
2022/05/14 12:26:23;;;;;;;0.93;0.80;;;32.40;42.30;;;;;;5034044;28;20622;-84
2022/05/14 12:28:53;;;;;;;3.23;0.60;;;32.30;41.70;;;;;;5033316;28;21497;-84
2022/05/14 12:34:11;;;;;;;0.67;0.57;;;32.90;41.80;;;;;;5036853;28;20633;-85
2022/05/14 12:36:42;;;;;;;0.60;0.60;;;33.20;41.40;;;;;;5034631;28;20622;-85
2022/05/14 12:39:12;;;;;;;1.47;1.00;;;33.30;41.80;;;;;;5033454;28;20732;-85
2022/05/14 12:41:41;;;;;;;0.40;0.40;;;33.90;39.60;;;;;;5027506;28;20705;-84
2022/05/14 12:44:12;;;;;;;0.77;0.77;;;34.30;39.00;;;;;;5030172;28;20626;-86
2022/05/14 12:46:42;;;;;;;0.57;0.57;;;34.10;38.50;;;;;;5030967;28;20636;-84
2022/05/14 12:49:17;;;;;;;0.60;0.60;;;34.30;39.60;;;;;;5033524;28;20618;-86
2022/05/14 12:51:49;;;;;;;0.60;0.60;;;33.60;38.40;;;;;;5031271;28;21305;-84
2022/05/14 12:54:22;;;;;;;1.43;0.50;;;33.90;39.60;;;;;;5040772;28;20633;-86
2022/05/14 12:56:52;;;;;;;0.70;0.70;;;34.50;39.70;;;;;;5031961;28;20629;-85
2022/05/14 12:59:20;;;;;;;0.70;0.70;;;32.50;37.40;;;;;;5033291;28;20625;-84
2022/05/14 13:01:49;;;;;;;0.60;0.57;;;32.80;39.70;;;;;;5032260;28;20751;-86
2022/05/14 13:04:18;;;;;;;0.60;0.60;;;33.80;37.60;;;;;;5032463;28;20725;-86
2022/05/14 13:06:46;;;;;;;0.70;0.70;;;33.70;37.90;;;;;;5032844;28;20629;-86
2022/05/14 13:09:22;;;;;;;1.23;0.47;;;34.00;38.30;;;;;;5034352;28;20756;-86
2022/05/14 13:11:52;;;;;;;0.50;0.50;;;33.10;40.30;;;;;;5029222;28;20653;-85
2022/05/14 13:14:23;;;;;;;0.40;0.40;;;32.30;40.10;;;;;;5033914;28;20630;-85
2022/05/14 13:16:55;;;;;;;0.90;0.90;;;32.80;37.80;;;;;;5031815;28;20626;-84
2022/05/14 13:19:36;;;;;;;0.80;0.80;;;31.70;38.20;;;;;;5035336;28;20734;-84
2022/05/14 13:22:07;;;;;;;1.00;0.70;;;32.80;39.80;;;;;;5032078;28;20633;-84
2022/05/14 13:24:36;;;;;;;1.80;0.73;;;32.80;38.60;;;;;;5039297;28;21033;-87
2022/05/14 13:27:09;;;;;;;0.63;0.50;;;33.00;38.70;;;;;;5034328;28;20726;-86